createdAt,value
2023-04-23T00:00:12.534Z,100240.84
2023-04-23T00:03:15.488Z,100240.95
2023-04-23T00:06:20.216Z,100238.03
2023-04-23T00:09:22.926Z,100235.25
2023-04-23T00:12:25.208Z,100234.20
2023-04-23T00:15:21.319Z,100230.61
2023-04-23T00:18:01.370Z,100229.32
2023-04-23T00:20:54.052Z,100230.77
2023-04-23T00:23:47.290Z,100228.70
2023-04-23T00:26:39.999Z,100226.96
2023-04-23T00:29:26.168Z,100226.92
2023-04-23T00:32:19.080Z,100225.79
2023-04-23T00:35:14.205Z,100225.58
2023-04-23T00:38:09.998Z,100225.33
2023-04-23T00:41:02.706Z,100227.20
2023-04-23T00:43:59.557Z,100225.41
2023-04-23T00:46:54.254Z,100220.92
2023-04-23T00:49:47.367Z,100219.45
2023-04-23T00:52:41.119Z,100218.14
2023-04-23T00:55:34.739Z,100220.27
2023-04-23T00:58:27.769Z,100224.51
2023-04-23T01:01:24.066Z,100227.40
2023-04-23T01:04:19.125Z,100228.26
2023-04-23T01:07:13.282Z,100227.71
2023-04-23T01:10:08.075Z,100231.64
2023-04-23T01:13:03.093Z,100226.91
2023-04-23T01:15:56.452Z,100229.53
2023-04-23T01:18:49.635Z,100231.23
2023-04-23T01:21:43.516Z,100230.67
2023-04-23T01:24:40.122Z,100232.14
2023-04-23T01:27:36.478Z,100229.64
2023-04-23T01:30:31.872Z,100227.88
2023-04-23T01:33:27.616Z,100225.58
2023-04-23T01:36:20.935Z,100229.52
2023-04-23T01:39:13.572Z,100224.98
2023-04-23T01:42:03.462Z,100223.72
2023-04-23T01:44:49.856Z,100225.84
2023-04-23T01:47:43.236Z,100225.65
2023-04-23T01:50:37.297Z,100227.96
2023-04-23T01:53:29.757Z,100228.13
2023-04-23T01:56:26.771Z,100229.59
2023-04-23T01:59:19.621Z,100225.93
2023-04-23T02:02:14.041Z,100228.14
2023-04-23T02:05:11.437Z,100229.71
2023-04-23T02:08:08.745Z,100231.27
2023-04-23T02:11:02.210Z,100229.13
2023-04-23T02:13:57.110Z,100229.36
2023-04-23T02:16:49.813Z,100231.05
2023-04-23T02:19:35.902Z,100228.58
2023-04-23T02:22:29.615Z,100223.95
2023-04-23T02:25:22.479Z,100225.84
2023-04-23T02:28:15.199Z,100224.14
2023-04-23T02:31:08.737Z,100224.92
2023-04-23T02:34:03.695Z,100225.63
2023-04-23T02:36:58.086Z,100226.10
2023-04-23T02:39:51.764Z,100224.93
2023-04-23T02:42:45.391Z,100225.23
2023-04-23T02:45:40.436Z,100225.97
2023-04-23T02:48:34.236Z,100226.59
2023-04-23T02:51:26.765Z,100222.94
2023-04-23T02:54:21.766Z,100221.66
2023-04-23T02:57:04.412Z,100221.84
2023-04-23T02:59:57.485Z,100222.14
2023-04-23T03:02:50.068Z,100217.41
2023-04-23T03:05:44.270Z,100219.39
2023-04-23T03:08:47.608Z,100220.83
2023-04-23T03:11:41.390Z,100220.06
2023-04-23T03:14:33.844Z,100218.66
2023-04-23T03:17:27.952Z,100216.56
2023-04-23T03:20:20.571Z,100216.84
2023-04-23T03:23:13.010Z,100214.65
2023-04-23T03:26:05.906Z,100210.64
2023-04-23T03:28:58.355Z,100207.79
2023-04-23T03:31:54.363Z,100212.05
2023-04-23T03:34:47.248Z,100212.23
2023-04-23T03:37:41.372Z,100211.29
2023-04-23T03:40:27.080Z,100209.90
2023-04-23T03:43:23.601Z,100211.42
2023-04-23T03:46:33.146Z,100208.39
2023-04-23T03:49:28.841Z,100204.69
2023-04-23T03:52:22.390Z,100203.63
2023-04-23T03:55:15.588Z,100208.98
2023-04-23T03:58:09.451Z,100204.04
2023-04-23T04:01:00.964Z,100206.48
2023-04-23T04:03:56.687Z,100208.52
2023-04-23T04:06:51.519Z,100207.02
2023-04-23T04:09:44.781Z,100212.83
2023-04-23T04:12:32.466Z,100210.70
2023-04-23T04:15:27.113Z,100216.24
2023-04-23T04:18:12.596Z,100215.73
2023-04-23T04:20:55.981Z,100214.53
2023-04-23T04:23:40.629Z,100215.02
2023-04-23T04:26:32.606Z,100216.98
2023-04-23T04:29:25.047Z,100208.86
2023-04-23T04:32:22.542Z,100208.83
2023-04-23T04:35:16.904Z,100212.08
2023-04-23T04:38:14.155Z,100207.57
2023-04-23T04:41:09.480Z,100207.41
2023-04-23T04:44:04.782Z,100207.92
2023-04-23T04:47:13.718Z,100206.73
2023-04-23T04:50:11.301Z,100212.44
2023-04-23T04:53:09.615Z,100204.77
2023-04-23T04:55:55.413Z,100208.21
2023-04-23T04:58:48.320Z,100203.83
2023-04-23T05:01:44.942Z,100205.65
2023-04-23T05:04:38.945Z,100199.64
2023-04-23T05:07:32.493Z,100195.27
2023-04-23T05:10:27.662Z,100192.65
2023-04-23T05:13:04.150Z,100195.19
2023-04-23T05:15:57.125Z,100196.17
2023-04-23T05:18:50.597Z,100199.61
2023-04-23T05:21:54.098Z,100197.95
2023-04-23T05:24:47.807Z,100194.53
2023-04-23T05:27:43.907Z,100199.64
2023-04-23T05:30:40.134Z,100193.14
2023-04-23T05:33:39.101Z,100193.80
2023-04-23T05:36:37.404Z,100197.60
2023-04-23T05:40:30.344Z,100193.61
2023-04-23T05:42:46.225Z,100192.60
2023-04-23T05:45:43.372Z,100194.30
2023-04-23T05:48:40.353Z,100196.79
2023-04-23T05:51:28.608Z,100194.91
2023-04-23T05:54:21.137Z,100195.30
2023-04-23T05:57:34.572Z,100191.60
2023-04-23T06:00:28.048Z,100190.27
2023-04-23T06:03:25.830Z,100189.80
2023-04-23T06:06:26.454Z,100188.39
2023-04-23T06:09:26.267Z,100191.47
2023-04-23T06:12:30.827Z,100189.58
2023-04-23T06:15:27.243Z,100192.44
2023-04-23T06:18:26.256Z,100186.23
2023-04-23T06:21:19.729Z,100185.71
2023-04-23T06:24:12.392Z,100192.64
2023-04-23T06:27:05.702Z,100195.55
2023-04-23T06:29:58.308Z,100196.34
2023-04-23T06:32:51.685Z,100195.67
2023-04-23T06:35:34.740Z,100190.36
2023-04-23T06:38:27.224Z,100190.73
2023-04-23T06:41:24.323Z,100184.88
2023-04-23T06:44:16.995Z,100187.11
2023-04-23T06:47:15.910Z,100181.02
2023-04-23T06:50:10.771Z,100185.13
2023-04-23T06:53:04.194Z,100180.07
2023-04-23T06:55:56.903Z,100182.17
2023-04-23T06:58:49.637Z,100184.70
2023-04-23T07:01:46.387Z,100178.95
2023-04-23T07:04:41.997Z,100177.84
2023-04-23T07:07:37.700Z,100175.30
2023-04-23T07:10:22.333Z,100174.53
2023-04-23T07:13:18.946Z,100176.52
2023-04-23T07:16:14.171Z,100171.91
2023-04-23T07:19:06.903Z,100168.23
2023-04-23T07:21:59.972Z,100168.47
2023-04-23T07:24:51.523Z,100167.92
2023-04-23T07:27:35.149Z,100166.34
2023-04-23T07:30:29.213Z,100164.18
2023-04-23T07:33:23.088Z,100159.46
2023-04-23T07:36:18.327Z,100155.17
2023-04-23T07:39:13.613Z,100157.04
2023-04-23T07:42:06.708Z,100155.27
2023-04-23T07:44:59.233Z,100149.56
2023-04-23T07:47:53.109Z,100151.13
2023-04-23T07:50:49.157Z,100149.71
2023-04-23T07:53:43.097Z,100149.59
2023-04-23T07:56:39.276Z,100151.34
2023-04-23T07:59:33.106Z,100148.63
2023-04-23T08:02:27.811Z,100147.52
2023-04-23T08:05:20.885Z,100154.80
2023-04-23T08:08:15.306Z,100151.38
2023-04-23T08:11:09.952Z,100143.32
2023-04-23T08:13:55.231Z,100143.20
2023-04-23T08:16:48.179Z,100141.69
2023-04-23T08:19:41.297Z,100140.89
2023-04-23T08:22:34.508Z,100137.43
2023-04-23T08:25:52.331Z,100142.89
2023-04-23T08:28:45.186Z,100137.02
2023-04-23T08:31:41.265Z,100133.11
2023-04-23T08:34:35.787Z,100136.35
2023-04-23T08:37:31.531Z,100130.88
2023-04-23T08:40:25.409Z,100128.48
2023-04-23T08:43:16.865Z,100127.80
2023-04-23T08:46:16.304Z,100126.52
2023-04-23T08:49:15.249Z,100120.76
2023-04-23T08:52:17.230Z,100117.69
2023-04-23T08:55:16.081Z,100112.70
2023-04-23T08:58:10.473Z,100116.20
2023-04-23T09:01:04.821Z,100112.58
2023-04-23T09:03:58.244Z,100111.15
2023-04-23T09:06:50.991Z,100106.94
2023-04-23T09:09:44.577Z,100102.73
2023-04-23T09:12:28.703Z,100105.11
2023-04-23T09:15:21.380Z,100099.50
2023-04-23T09:18:15.283Z,100097.48
2023-04-23T09:21:08.538Z,100096.05
2023-04-23T09:24:06.386Z,100089.31
2023-04-23T09:27:00.862Z,100092.60
2023-04-23T09:29:59.762Z,100091.81
2023-04-23T09:32:53.749Z,100089.49
2023-04-23T09:35:30.925Z,100087.39
2023-04-23T09:38:24.236Z,100087.90
2023-04-23T09:41:28.172Z,100088.85
2023-04-23T09:44:20.841Z,100084.06
2023-04-23T09:47:15.956Z,100076.21
2023-04-23T09:50:12.537Z,100072.56
2023-04-23T09:53:06.903Z,100074.25
2023-04-23T09:55:59.649Z,100069.45
2023-04-23T09:58:52.734Z,100065.05
2023-04-23T10:01:48.038Z,100061.69
2023-04-23T10:04:42.625Z,100063.59
2023-04-23T10:07:38.924Z,100055.84
2023-04-23T10:10:32.208Z,100055.25
2023-04-23T10:13:28.344Z,100052.16
2023-04-23T10:16:25.473Z,100053.67
2023-04-23T10:19:26.014Z,100042.33
2023-04-23T10:22:21.453Z,100035.37
2023-04-23T10:25:16.353Z,100038.63
2023-04-23T10:28:13.383Z,100034.21
2023-04-23T10:31:08.079Z,100023.27
2023-04-23T10:34:06.917Z,100028.02
2023-04-23T10:37:01.490Z,100027.25
2023-04-23T10:40:01.468Z,100020.21
2023-04-23T10:42:55.820Z,100021.65
2023-04-23T10:45:50.979Z,100016.22
2023-04-23T10:49:09.930Z,100014.38
2023-04-23T10:52:19.607Z,100014.67
2023-04-23T10:55:21.680Z,100008.70
2023-04-23T10:58:15.052Z,100006.31
2023-04-23T11:01:09.370Z,100005.75
2023-04-23T11:04:30.049Z,100004.08
2023-04-23T11:07:34.081Z,99988.42
2023-04-23T11:10:27.910Z,99992.41
2023-04-23T11:13:31.503Z,99992.13
2023-04-23T11:16:46.380Z,99989.46
2023-04-23T11:20:06.769Z,99988.64
2023-04-23T11:24:10.567Z,99986.95
2023-04-23T11:26:22.486Z,99984.48
2023-04-23T11:29:17.230Z,99981.06
2023-04-23T11:32:13.136Z,99977.23
2023-04-23T11:35:28.791Z,99968.91
2023-04-23T11:38:23.587Z,99967.39
2023-04-23T11:41:34.415Z,99966.10
2023-04-23T11:44:42.534Z,99964.28
2023-04-23T11:47:41.553Z,99966.73
2023-04-23T11:50:37.546Z,99965.48
2023-04-23T11:53:35.433Z,99964.02
2023-04-23T11:56:35.544Z,99962.12
2023-04-23T11:59:56.153Z,99953.72
2023-04-23T12:02:59.680Z,99956.70
2023-04-23T12:06:07.918Z,99958.17
2023-04-23T12:09:03.738Z,99961.34
2023-04-23T12:11:58.484Z,99962.13
2023-04-23T12:15:09.671Z,99955.06
2023-04-23T12:18:13.270Z,99951.24
2023-04-23T12:21:10.224Z,99953.19
2023-04-23T12:24:06.914Z,99945.52
2023-04-23T12:26:54.871Z,99940.40
2023-04-23T12:29:48.758Z,99937.29
2023-04-23T12:32:49.316Z,99931.65
2023-04-23T12:35:54.244Z,99924.55
2023-04-23T12:38:47.414Z,99927.36
2023-04-23T12:41:40.245Z,99925.34
2023-04-23T12:44:39.121Z,99928.38
2023-04-23T12:47:52.407Z,99922.66
2023-04-23T12:50:47.144Z,99915.80
2023-04-23T12:53:44.558Z,99913.27
2023-04-23T12:56:41.563Z,99910.56
2023-04-23T12:59:38.153Z,99918.75
2023-04-23T13:02:31.994Z,99915.50
2023-04-23T13:05:25.342Z,99909.39
2023-04-23T13:08:18.088Z,99902.29
2023-04-23T13:11:11.543Z,99893.80
2023-04-23T13:14:09.224Z,99900.27
2023-04-23T13:17:10.734Z,99899.80
2023-04-23T13:20:08.032Z,99890.70
2023-04-23T13:23:01.999Z,99884.48
2023-04-23T13:25:54.368Z,99881.34
2023-04-23T13:28:48.220Z,99878.00
2023-04-23T13:31:38.762Z,99874.46
2023-04-23T13:35:21.328Z,99871.81
2023-04-23T13:37:42.495Z,99865.73
2023-04-23T13:40:46.804Z,99863.21
2023-04-23T13:43:42.421Z,99866.66
2023-04-23T13:46:45.066Z,99870.30
2023-04-23T13:49:42.157Z,99868.68
2023-04-23T13:53:01.056Z,99865.52
2023-04-23T13:55:48.776Z,99859.85
2023-04-23T13:58:46.407Z,99852.70
2023-04-23T14:01:47.309Z,99846.09
2023-04-23T14:04:41.719Z,99842.34
2023-04-23T14:07:39.709Z,99839.46
2023-04-23T14:10:32.598Z,99833.41
2023-04-23T14:13:26.164Z,99826.54
2023-04-23T14:16:20.576Z,99831.65
2023-04-23T14:19:17.665Z,99828.64
2023-04-23T14:22:11.027Z,99826.83
2023-04-23T14:25:10.617Z,99822.69
2023-04-23T14:28:17.863Z,99824.58
2023-04-23T14:31:12.078Z,99825.47
2023-04-23T14:34:06.521Z,99821.28
2023-04-23T14:36:54.467Z,99818.17
2023-04-23T14:39:48.640Z,99811.34
2023-04-23T14:42:31.791Z,99807.27
2023-04-23T14:45:26.425Z,99807.20
2023-04-23T14:48:21.353Z,99801.12
2023-04-23T14:51:14.004Z,99805.98
2023-04-23T14:54:07.369Z,99803.75
2023-04-23T14:56:59.726Z,99803.45
2023-04-23T14:59:56.252Z,99802.73
2023-04-23T15:02:46.479Z,99800.73
2023-04-23T15:05:45.042Z,99800.70
2023-04-23T15:08:34.960Z,99799.95
2023-04-23T15:11:34.123Z,99799.86
2023-04-23T15:14:34.696Z,99793.42
2023-04-23T15:17:32.116Z,99793.39
2023-04-23T15:21:19.427Z,99787.39
2023-04-23T15:23:43.079Z,99781.25
2023-04-23T15:26:36.499Z,99775.41
2023-04-23T15:29:32.609Z,99782.82
2023-04-23T15:32:27.898Z,99781.83
2023-04-23T15:35:21.728Z,99777.55
2023-04-23T15:38:19.781Z,99774.64
2023-04-23T15:41:14.438Z,99773.38
2023-04-23T15:44:15.282Z,99774.22
2023-04-23T15:47:08.524Z,99770.71
2023-04-23T15:50:07.827Z,99771.17
2023-04-23T15:53:03.342Z,99765.48
2023-04-23T15:56:12.912Z,99766.02
2023-04-23T15:59:32.171Z,99763.52
2023-04-23T16:02:35.426Z,99758.27
2023-04-23T16:05:31.842Z,99753.74
2023-04-23T16:08:25.007Z,99755.91
2023-04-23T16:11:17.588Z,99755.55
2023-04-23T16:14:13.643Z,99754.80
2023-04-23T16:17:06.354Z,99755.50
2023-04-23T16:21:50.238Z,99750.91
2023-04-23T16:25:32.302Z,99751.76
2023-04-23T16:28:00.113Z,99748.67
2023-04-23T16:30:55.231Z,99748.02
2023-04-23T16:33:47.874Z,99742.42
2023-04-23T16:40:09.269Z,99742.64
2023-04-23T16:43:01.817Z,99745.40
2023-04-23T16:45:54.465Z,99739.95
2023-04-23T16:49:02.060Z,99741.60
2023-04-23T16:51:59.075Z,99743.85
2023-04-23T16:54:53.110Z,99743.67
2023-04-23T16:57:58.381Z,99737.98
2023-04-23T17:00:48.661Z,99734.98
2023-04-23T17:03:36.873Z,99734.22
2023-04-23T17:06:31.830Z,99732.11
2023-04-23T17:09:24.771Z,99733.27
2023-04-23T17:12:24.484Z,99728.67
2023-04-23T17:15:18.008Z,99730.00
2023-04-23T17:18:31.786Z,99728.08
2023-04-23T17:21:24.508Z,99727.38
2023-04-23T17:24:08.430Z,99729.64
2023-04-23T17:27:02.796Z,99723.50
2023-04-23T17:29:56.080Z,99721.85
2023-04-23T17:32:48.633Z,99725.19
2023-04-23T17:35:42.326Z,99726.45
2023-04-23T17:38:38.617Z,99723.59
2023-04-23T17:41:51.482Z,99724.02
2023-04-23T17:44:37.199Z,99720.04
2023-04-23T17:47:30.115Z,99717.64
2023-04-23T17:50:22.905Z,99717.98
2023-04-23T17:53:48.751Z,99714.65
2023-04-23T17:56:45.335Z,99713.20
2023-04-23T17:59:43.623Z,99715.86
2023-04-23T18:02:40.788Z,99716.80
2023-04-23T18:05:34.033Z,99715.61
2023-04-23T18:08:27.474Z,99716.14
2023-04-23T18:11:21.279Z,99717.46
2023-04-23T18:14:14.989Z,99719.45
2023-04-23T18:17:06.523Z,99720.02
2023-04-23T18:20:02.413Z,99720.05
2023-04-23T18:26:27.070Z,99726.71
2023-04-23T18:29:19.989Z,99723.43
2023-04-23T18:32:20.988Z,99728.88
2023-04-23T18:35:20.843Z,99725.47
2023-04-23T18:38:32.748Z,99725.83
2023-04-23T18:41:30.453Z,99725.16
2023-04-23T18:44:24.376Z,99725.66
2023-04-23T18:47:21.600Z,99721.70
2023-04-23T18:50:50.067Z,99723.27
2023-04-23T18:53:44.207Z,99723.41
2023-04-23T18:57:37.836Z,99721.41
2023-04-23T18:59:52.056Z,99719.36
2023-04-23T19:02:48.733Z,99722.42
2023-04-23T19:05:46.025Z,99720.92
2023-04-23T19:08:41.548Z,99720.84
2023-04-23T19:11:35.562Z,99719.59
2023-04-23T19:14:28.166Z,99723.61
2023-04-23T19:17:21.399Z,99723.98
2023-04-23T19:20:15.948Z,99722.04
2023-04-23T19:23:10.038Z,99717.05
2023-04-23T19:26:03.944Z,99717.52
2023-04-23T19:28:57.454Z,99720.45
2023-04-23T19:31:50.822Z,99717.16
2023-04-23T19:34:45.984Z,99720.13
2023-04-23T19:37:39.217Z,99718.59
2023-04-23T19:40:32.780Z,99718.63
2023-04-23T19:43:25.647Z,99719.21
2023-04-23T19:46:22.041Z,99719.25
2023-04-23T19:49:17.256Z,99717.51
2023-04-23T19:52:45.312Z,99718.04
2023-04-23T19:55:49.911Z,99713.66
2023-04-23T19:58:42.764Z,99713.90
2023-04-23T20:01:39.099Z,99713.48
2023-04-23T20:04:31.626Z,99710.30
2023-04-23T20:07:25.547Z,99710.45
2023-04-23T20:09:58.132Z,99708.00
2023-04-23T20:12:50.763Z,99707.96
2023-04-23T20:15:44.725Z,99703.40
2023-04-23T20:18:39.292Z,99702.87
2023-04-23T20:21:33.249Z,99703.95
2023-04-23T20:24:27.365Z,99706.30
2023-04-23T20:27:19.962Z,99704.21
2023-04-23T20:30:16.670Z,99703.08
2023-04-23T20:33:11.184Z,99698.59
2023-04-23T20:36:32.664Z,99701.43
2023-04-23T20:39:26.024Z,99701.15
2023-04-23T20:42:18.454Z,99702.66
2023-04-23T20:45:14.592Z,99705.14
2023-04-23T20:48:08.258Z,99709.84
2023-04-23T20:51:02.780Z,99721.48
2023-04-23T20:53:57.716Z,99736.64
2023-04-23T20:56:54.419Z,99722.92
2023-04-23T20:59:47.919Z,99718.48
2023-04-23T21:02:42.023Z,99725.91
2023-04-23T21:05:45.043Z,99730.58
2023-04-23T21:08:41.508Z,99723.65
2023-04-23T21:11:38.020Z,99709.65
2023-04-23T21:14:31.994Z,99708.61
2023-04-23T21:17:24.806Z,99725.25
2023-04-23T21:20:14.452Z,99731.08
2023-04-23T21:23:09.022Z,99722.56
2023-04-23T21:26:01.597Z,99712.48
2023-04-23T21:28:44.096Z,99714.04
2023-04-23T21:31:49.177Z,99711.20
2023-04-23T21:34:44.366Z,99707.82
2023-04-23T21:37:38.340Z,99700.86
2023-04-23T21:40:34.196Z,99695.06
2023-04-23T21:43:26.644Z,99696.83
2023-04-23T21:46:19.141Z,99695.24
2023-04-23T21:49:13.253Z,99694.21
2023-04-23T21:52:06.815Z,99686.05
2023-04-23T21:54:59.576Z,99683.48
2023-04-23T21:57:52.228Z,99681.64
2023-04-23T22:00:39.432Z,99678.81
2023-04-23T22:03:38.521Z,99679.00
2023-04-23T22:06:34.735Z,99677.04
2023-04-23T22:09:27.425Z,99685.41
2023-04-23T22:12:20.560Z,99690.75
2023-04-23T22:15:15.370Z,99700.84
2023-04-23T22:18:08.818Z,99698.60
2023-04-23T22:21:01.833Z,99698.42
2023-04-23T22:23:54.837Z,99696.98
2023-04-23T22:26:47.685Z,99696.58
2023-04-23T22:29:41.364Z,99696.17
2023-04-23T22:32:34.059Z,99695.76
2023-04-23T22:35:27.412Z,99688.53
2023-04-23T22:38:20.002Z,99686.90
2023-04-23T22:41:15.964Z,99683.30
2023-04-23T22:43:58.380Z,99685.34
2023-04-23T22:46:51.242Z,99679.70
2023-04-23T22:49:46.802Z,99678.55
2023-04-23T22:52:39.539Z,99678.66
2023-04-23T22:55:32.498Z,99682.81
2023-04-23T22:58:25.074Z,99684.89
2023-04-23T23:01:20.560Z,99681.55
2023-04-23T23:04:13.908Z,99679.52
2023-04-23T23:07:07.253Z,99679.27
2023-04-23T23:10:00.139Z,99676.75
2023-04-23T23:12:54.704Z,99674.04
2023-04-23T23:15:50.301Z,99667.58
2023-04-23T23:18:43.889Z,99668.54
2023-04-23T23:21:36.516Z,99664.41
2023-04-23T23:24:29.004Z,99663.05
2023-04-23T23:27:21.778Z,99657.77
2023-04-23T23:30:09.812Z,99658.70
2023-04-23T23:33:02.438Z,99663.38
2023-04-23T23:36:28.059Z,99658.30
2023-04-23T23:39:22.081Z,99650.79
2023-04-23T23:42:16.417Z,99647.36
2023-04-23T23:45:12.059Z,99645.52
2023-04-23T23:48:06.008Z,99642.67
2023-04-23T23:50:58.753Z,99635.73
2023-04-23T23:53:51.156Z,99638.40
2023-04-23T23:56:37.304Z,99640.86
2023-04-23T23:59:29.686Z,99639.81
